Time;durP1;ratioP1;P1;durP2;ratioP2;P2;SDS_P1;SDS_P2;PMS_P1;PMS_P2;Temp;Humidity;BMP_temperature;BMP_pressure;BME280_temperature;BME280_humidity;BME280_pressure;Samples;Min_cycle;Max_cycle;Signal;HPM_P1;HPM_P2
2023/08/07 00:01:47;;;;;;;;;;;13.00;99.90;;;;;;4978969;28;19947;-75
2023/08/07 00:04:12;;;;;;;;;;;13.00;99.90;;;;;;4984925;28;20302;-79
2023/08/07 00:06:38;;;;;;;;;;;13.10;99.90;;;;;;4974425;28;19925;-80
2023/08/07 00:09:03;;;;;;;;;;;13.20;99.90;;;;;;4984661;28;19926;-78
2023/08/07 00:11:29;;;;;;;;;;;11.20;99.90;;;;;;4985873;28;20449;-85
2023/08/07 00:13:55;;;;;;;;;;;13.30;99.90;;;;;;4986830;28;20017;-75
2023/08/07 00:16:21;;;;;;;;;;;13.40;99.90;;;;;;4974434;28;19925;-78
2023/08/07 00:18:46;;;;;;;;;;;13.40;99.90;;;;;;4975765;28;20279;-81
2023/08/07 00:21:12;;;;;;;;;;;13.50;99.90;;;;;;4975748;28;19928;-76
2023/08/07 00:23:38;;;;;;;;;;;13.50;99.90;;;;;;4964662;28;19932;-77
2023/08/07 00:26:03;;;;;;;;;;;13.50;99.90;;;;;;4981470;28;19995;-79
2023/08/07 00:28:29;;;;;;;;;;;13.60;99.90;;;;;;4981304;28;19925;-78
2023/08/07 00:30:55;;;;;;;;;;;13.70;99.90;;;;;;4972252;28;19925;-79
2023/08/07 00:33:21;;;;;;;;;;;13.70;99.90;;;;;;4966363;28;20663;-79
2023/08/07 00:35:46;;;;;;;;;;;13.70;99.90;;;;;;4984487;28;19925;-79
2023/08/07 00:38:12;;;;;;;;;;;13.70;99.90;;;;;;4983243;28;19925;-77
2023/08/07 00:40:38;;;;;;;;;;;13.70;99.90;;;;;;4975761;28;19932;-80
2023/08/07 00:43:04;;;;;;;;;;;13.70;99.90;;;;;;4956870;28;20020;-81
2023/08/07 00:45:32;;;;;;;;;;;13.70;99.90;;;;;;4961822;28;20024;-79
2023/08/07 00:47:58;;;;;;;;;;;13.70;99.90;;;;;;4984107;28;19956;-79
2023/08/07 00:50:24;;;;;;;;;;;13.70;99.90;;;;;;4988822;28;20072;-83
2023/08/07 00:52:49;;;;;;;;;;;13.70;99.90;;;;;;4969367;28;19933;-81
2023/08/07 00:55:15;;;;;;;;;;;13.70;99.90;;;;;;4984860;28;19925;-83
2023/08/07 00:57:41;;;;;;;;;;;13.70;99.90;;;;;;4974241;28;20015;-79
2023/08/07 01:00:07;;;;;;;;;;;13.70;99.90;;;;;;4977754;28;19931;-83
2023/08/07 01:02:33;;;;;;;;;;;11.10;99.90;;;;;;4969963;28;19921;-84
2023/08/07 01:04:59;;;;;;;;;;;13.60;99.90;;;;;;4965599;28;20434;-81
2023/08/07 01:07:25;;;;;;;;;;;13.50;99.90;;;;;;4968412;28;19944;-81
2023/08/07 01:09:50;;;;;;;;;;;13.50;99.90;;;;;;4978400;28;20582;-84
2023/08/07 01:12:19;;;;;;;;;;;13.50;99.90;;;;;;4981842;28;19925;-84
2023/08/07 01:14:57;;;;;;;;;;;13.30;99.90;;;;;;4984183;28;19960;-78
2023/08/07 01:17:23;;;;;;;;;;;13.40;99.90;;;;;;4985416;28;19930;-79
2023/08/07 01:19:50;;;;;;;;;;;13.40;99.90;;;;;;4982384;28;20667;-78
2023/08/07 01:22:16;;;;;;;;;;;13.40;99.90;;;;;;4977648;28;19972;-78
2023/08/07 01:24:46;;;;;;;;;;;13.30;99.90;;;;;;4984844;23;19925;-78
2023/08/07 01:27:22;;;;;;;;;;;13.40;99.90;;;;;;4972917;23;19925;-78
2023/08/07 01:29:50;;;;;;;;;;;13.40;99.90;;;;;;4964899;28;20443;-78
2023/08/07 01:32:19;;;;;;;;;;;13.40;99.90;;;;;;4965871;28;19972;-85
2023/08/07 01:38:16;;;;;;;;;;;13.40;99.90;;;;;;5007648;23;19984;-78
2023/08/07 01:40:42;;;;;;;;;;;14.90;99.90;;;;;;4968721;28;19968;-81
2023/08/07 01:43:08;;;;;;;;;;;13.40;99.90;;;;;;4983915;28;20841;-77
2023/08/07 01:45:34;;;;;;;;;;;13.50;99.90;;;;;;4999884;28;19931;-81
2023/08/07 01:47:59;;;;;;;;;;;13.40;99.90;;;;;;4960630;28;19925;-83
2023/08/07 01:50:25;;;;;;;;;;;13.40;99.90;;;;;;4964713;28;19972;-82
2023/08/07 01:52:51;;;;;;;;;;;13.50;99.90;;;;;;4966651;28;19932;-78
2023/08/07 01:55:41;;;;;;;;;;;13.60;99.90;;;;;;4980590;23;19970;-75
2023/08/07 01:58:07;;;;;;;;;;;13.40;99.90;;;;;;4938134;28;20013;-78
2023/08/07 02:00:32;;;;;;;;;;;13.40;99.90;;;;;;4905819;29;20017;-82
2023/08/07 02:02:58;;;;;;;;;;;13.50;99.90;;;;;;4922410;29;19930;-79
2023/08/07 02:08:42;;;;;;;;;;;13.40;99.90;;;;;;4541674;23;20372;-82
2023/08/07 02:11:08;;;;;;;;;;;13.40;99.90;;;;;;4941818;29;20372;-77
2023/08/07 02:13:33;;;;;;;;;;;13.40;99.90;;;;;;4943639;29;19933;-79
2023/08/07 02:15:59;;;;;;;;;;;13.40;99.90;;;;;;4944329;29;19927;-85
2023/08/07 02:18:25;;;;;;;;;;;13.50;99.90;;;;;;4944672;29;19986;-82
2023/08/07 02:20:50;;;;;;;;;;;13.40;99.90;;;;;;4953986;23;19927;-80
2023/08/07 02:25:41;;;;;;;;;;;13.50;99.90;;;;;;4948270;23;19933;-79
2023/08/07 02:28:07;;;;;;;;;;;13.50;99.90;;;;;;4952411;23;19976;-86
2023/08/07 02:30:33;;;;;;;;;;;13.50;99.90;;;;;;4959767;28;19961;-84
2023/08/07 02:32:59;;;;;;;;;;;13.70;99.90;;;;;;4956560;23;20566;-75
2023/08/07 02:35:24;;;;;;;;;;;13.60;99.90;;;;;;4930071;29;19937;-81
2023/08/07 02:37:50;;;;;;;;;;;13.60;99.90;;;;;;4944712;29;20037;-77
2023/08/07 02:40:17;;;;;;;;;;;13.60;99.90;;;;;;4945682;29;19966;-80
2023/08/07 02:42:43;;;;;;;;;;;13.60;99.90;;;;;;4943926;28;19977;-79
2023/08/07 02:45:09;;;;;;;;;;;16.30;99.90;;;;;;4929495;29;19926;-81
2023/08/07 02:47:34;;;;;;;;;;;13.70;99.90;;;;;;4924404;29;19934;-81
2023/08/07 02:50:00;;;;;;;;;;;13.70;99.90;;;;;;4943672;29;19926;-76
2023/08/07 02:52:25;;;;;;;;;;;13.70;99.90;;;;;;4943958;29;19926;-77
2023/08/07 02:54:51;;;;;;;;;;;13.70;99.90;;;;;;4972305;23;20553;-78
2023/08/07 03:04:27;;;;;;;;;;;13.70;99.90;;;;;;4827784;23;20295;-86
2023/08/07 03:06:52;;;;;;;;;;;13.80;99.90;;;;;;4964938;28;20443;-85
2023/08/07 03:09:18;;;;;;;;;;;13.80;99.90;;;;;;4949263;28;19927;-77
2023/08/07 03:11:43;;;;;;;;;;;13.80;99.90;;;;;;4962819;28;19925;-81
2023/08/07 03:14:28;;;;;;;;;;;13.80;99.90;;;;;;4956822;23;19945;-81
2023/08/07 03:20:55;;;;;;;;;;;13.70;99.90;;;;;;4961981;23;19994;-78
2023/08/07 03:23:21;;;;;;;;;;;13.70;99.90;;;;;;4940010;28;19922;-81
2023/08/07 03:25:51;;;;;;;;;;;13.70;99.90;;;;;;4935389;23;19922;-78
2023/08/07 03:32:15;;;;;;;;;;;13.80;99.90;;;;;;4972753;23;19933;-94
2023/08/07 03:34:41;;;;;;;;;;;12.70;99.90;;;;;;4937236;28;19965;-90
2023/08/07 03:37:07;;;;;;;;;;;13.90;99.90;;;;;;4938344;28;19961;-93
2023/08/07 03:39:36;;;;;;;;;;;13.90;99.90;;;;;;4937871;28;19922;-94
2023/08/07 03:42:07;;;;;;;;;;;14.70;99.90;;;;;;4938144;28;19947;-95
2023/08/07 03:44:39;;;;;;;;;;;15.60;99.90;;;;;;4929415;29;19932;-95
2023/08/07 03:47:08;;;;;;;;;;;13.80;99.90;;;;;;4943579;28;19922;-92
2023/08/07 03:49:37;;;;;;;;;;;12.20;99.90;;;;;;4943405;28;20872;-91
2023/08/07 03:52:08;;;;;;;;;;;13.70;99.90;;;;;;4941923;28;19961;-94
2023/08/07 03:54:40;;;;;;;;;;;13.70;99.90;;;;;;4942281;28;19944;-92
2023/08/07 03:57:10;;;;;;;;;;;13.70;99.90;;;;;;4941849;28;19929;-96
2023/08/07 03:59:39;;;;;;;;;;;13.50;99.90;;;;;;4943960;28;19922;-91
2023/08/07 04:02:12;;;;;;;;;;;13.60;99.90;;;;;;4942019;28;19922;-94
2023/08/07 04:04:59;;;;;;;;;;;14.60;99.90;;;;;;4948859;28;19933;-96
2023/08/07 04:07:25;;;;;;;;;;;14.10;99.90;;;;;;4938889;28;19922;-95
2023/08/07 04:09:51;;;;;;;;;;;13.50;99.90;;;;;;4940781;28;20396;-96
2023/08/07 04:12:17;;;;;;;;;;;13.50;99.90;;;;;;4942254;28;20025;-94
2023/08/07 04:14:45;;;;;;;;;;;13.90;99.90;;;;;;4944549;28;19918;-93
2023/08/07 04:17:17;;;;;;;;;;;14.20;99.90;;;;;;4940818;28;20423;-94
2023/08/07 04:19:58;;;;;;;;;;;14.60;99.90;;;;;;4949755;28;19972;-95
2023/08/07 04:22:25;;;;;;;;;;;13.00;99.90;;;;;;4942513;28;19922;-96
2023/08/07 04:24:51;;;;;;;;;;;13.90;99.90;;;;;;4944497;28;19926;-96
2023/08/07 04:27:20;;;;;;;;;;;13.60;99.90;;;;;;4943521;28;20695;-96
2023/08/07 04:29:49;;;;;;;;;;;13.50;99.90;;;;;;4954699;28;19944;-95
2023/08/07 04:32:16;;;;;;;;;;;10.60;99.90;;;;;;4934565;28;19968;-93
2023/08/07 04:34:41;;;;;;;;;;;13.60;99.90;;;;;;4951713;28;19997;-95
2023/08/07 04:37:07;;;;;;;;;;;13.60;99.90;;;;;;4951229;28;19918;-92
2023/08/07 04:42:40;;;;;;;;;;;13.60;99.90;;;;;;4952385;28;19925;-91
2023/08/07 04:45:06;;;;;;;;;;;13.70;99.90;;;;;;4933587;28;19942;-92
2023/08/07 04:47:31;;;;;;;;;;;13.70;99.90;;;;;;4933526;28;19929;-90
2023/08/07 04:49:57;;;;;;;;;;;13.70;99.90;;;;;;4938113;28;19925;-94
2023/08/07 04:52:23;;;;;;;;;;;13.70;99.90;;;;;;4939211;28;19917;-96
2023/08/07 04:54:56;;;;;;;;;;;10.90;99.90;;;;;;4939893;28;19973;-96
2023/08/07 04:57:25;;;;;;;;;;;13.80;99.90;;;;;;4956145;28;19922;-96
2023/08/07 04:59:50;;;;;;;;;;;13.80;99.90;;;;;;4941307;28;19929;-94
2023/08/07 05:02:16;;;;;;;;;;;13.80;99.90;;;;;;4939185;28;19922;-93
2023/08/07 05:04:42;;;;;;;;;;;13.80;99.90;;;;;;4936825;29;19926;-94
2023/08/07 05:07:08;;;;;;;;;;;14.10;99.90;;;;;;4932956;28;19952;-93
2023/08/07 05:09:33;;;;;;;;;;;13.80;99.90;;;;;;4938195;28;20005;-95
2023/08/07 05:11:59;;;;;;;;;;;13.90;99.90;;;;;;4933333;28;19918;-93
2023/08/07 05:14:32;;;;;;;;;;;13.90;99.90;;;;;;4935374;28;19926;-93
2023/08/07 05:16:59;;;;;;;;;;;12.80;99.90;;;;;;4936727;28;20386;-93
2023/08/07 05:19:28;;;;;;;;;;;13.90;99.90;;;;;;4935084;28;19949;-95
2023/08/07 05:21:53;;;;;;;;;;;14.20;99.90;;;;;;4933732;28;19977;-91
2023/08/07 05:24:19;;;;;;;;;;;14.10;99.90;;;;;;4935876;28;19921;-89
2023/08/07 05:26:45;;;;;;;;;;;14.10;99.90;;;;;;4933304;28;20025;-94
2023/08/07 05:29:11;;;;;;;;;;;14.10;99.90;;;;;;4940037;28;19980;-95
2023/08/07 05:31:39;;;;;;;;;;;17.10;99.90;;;;;;4940220;28;19929;-96
2023/08/07 05:34:06;;;;;;;;;;;14.30;99.90;;;;;;4945420;28;19926;-96
2023/08/07 05:36:39;;;;;;;;;;;14.80;99.90;;;;;;4942821;28;19933;-94
2023/08/07 05:39:05;;;;;;;;;;;13.00;99.90;;;;;;4934385;28;19921;-86
2023/08/07 05:41:30;;;;;;;;;;;14.40;99.90;;;;;;4932525;28;20383;-88
2023/08/07 05:43:56;;;;;;;;;;;14.50;99.90;;;;;;4930075;28;19933;-85
2023/08/07 05:46:22;;;;;;;;;;;14.70;99.90;;;;;;4933920;28;20670;-87
2023/08/07 05:48:47;;;;;;;;;;;15.60;99.90;;;;;;4930758;28;19922;-86
2023/08/07 05:51:13;;;;;;;;;;;15.40;99.90;;;;;;4932264;28;20389;-89
2023/08/07 05:53:39;;;;;;;;;;;15.40;99.90;;;;;;4934829;28;20284;-85
2023/08/07 05:56:04;;;;;;;;;;;15.40;99.90;;;;;;4933972;28;19945;-90
2023/08/07 05:58:30;;;;;;;;;;;15.30;99.90;;;;;;4933857;28;19922;-88
2023/08/07 06:00:56;;;;;;;;;;;15.30;99.90;;;;;;4935347;28;20402;-93
2023/08/07 06:03:21;;;;;;;;;;;15.40;99.90;;;;;;4933497;28;20024;-88
2023/08/07 06:05:47;;;;;;;;;;;15.60;99.90;;;;;;4934918;28;20661;-88
2023/08/07 06:08:13;;;;;;;;;;;16.20;99.90;;;;;;4937631;28;19944;-91
2023/08/07 06:10:41;;;;;;;;;;;17.00;99.90;;;;;;4937303;28;20508;-89
2023/08/07 06:13:08;;;;;;;;;;;18.60;99.90;;;;;;4936142;28;19929;-89
2023/08/07 06:15:33;;;;;;;;;;;19.70;99.90;;;;;;4935758;28;19921;-91
2023/08/07 06:17:59;;;;;;;;;;;20.70;99.90;;;;;;4935058;28;19944;-86
2023/08/07 06:20:25;;;;;;;;;;;21.60;99.90;;;;;;4939944;28;20398;-90
2023/08/07 06:22:50;;;;;;;;;;;22.10;99.90;;;;;;4934507;28;19976;-88
2023/08/07 06:25:16;;;;;;;;;;;21.60;99.90;;;;;;4940372;28;19928;-91
2023/08/07 06:27:42;;;;;;;;;;;20.70;99.90;;;;;;4935873;28;19925;-92
2023/08/07 06:30:08;;;;;;;;;;;20.40;99.90;;;;;;4936260;28;19918;-92
2023/08/07 06:32:33;;;;;;;;;;;19.00;99.90;;;;;;4937367;28;20004;-91
2023/08/07 06:35:09;;;;;;;;;;;18.50;99.90;;;;;;4933634;28;20735;-92
2023/08/07 06:37:38;;;;;;;;;;;18.70;99.90;;;;;;4935466;28;20271;-90
2023/08/07 06:40:05;;;;;;;;;;;17.90;99.90;;;;;;4936854;28;19917;-89
2023/08/07 06:42:30;;;;;;;;;;;17.90;99.90;;;;;;4937488;28;20076;-95
2023/08/07 06:44:56;;;;;;;;;;;17.20;99.90;;;;;;4935803;28;20009;-88
2023/08/07 06:47:25;;;;;;;;;;;17.00;99.90;;;;;;4937036;28;19922;-91
2023/08/07 06:49:50;;;;;;;;;;;16.90;99.90;;;;;;4935826;28;20398;-90
2023/08/07 06:52:16;;;;;;;;;;;16.70;99.90;;;;;;4935365;28;19922;-91
2023/08/07 06:54:41;;;;;;;;;;;16.60;99.90;;;;;;4935764;28;19922;-90
2023/08/07 06:57:07;;;;;;;;;;;16.50;99.90;;;;;;4933418;28;19922;-90
2023/08/07 06:59:33;;;;;;;;;;;16.90;99.90;;;;;;4936275;28;19921;-91
2023/08/07 07:01:58;;;;;;;;;;;16.70;99.90;;;;;;4936578;28;19972;-91
2023/08/07 07:04:24;;;;;;;;;;;17.40;99.90;;;;;;4936299;28;19929;-90
2023/08/07 07:06:50;;;;;;;;;;;18.90;99.90;;;;;;4934067;28;20009;-90
2023/08/07 07:09:16;;;;;;;;;;;20.00;99.90;;;;;;4938611;28;19918;-91
2023/08/07 07:11:42;;;;;;;;;;;20.40;99.90;;;;;;4939256;28;20155;-93
2023/08/07 07:14:07;;;;;;;;;;;20.40;99.90;;;;;;4932450;28;20283;-93
2023/08/07 07:16:33;;;;;;;;;;;20.10;99.90;;;;;;4936308;28;19922;-89
2023/08/07 07:19:02;;;;;;;;;;;19.40;99.90;;;;;;4928530;28;19922;-87
2023/08/07 07:21:31;;;;;;;;;;;18.80;99.90;;;;;;4938677;28;20027;-90
2023/08/07 07:23:56;;;;;;;;;;;18.60;99.90;;;;;;4937326;28;20004;-89
2023/08/07 07:26:22;;;;;;;;;;;17.50;99.90;;;;;;4938542;28;20009;-90
2023/08/07 07:28:48;;;;;;;;;;;17.90;99.90;;;;;;4940007;28;20016;-88
2023/08/07 07:31:13;;;;;;;;;;;18.10;99.90;;;;;;4936310;28;20347;-87
2023/08/07 07:33:41;;;;;;;;;;;18.00;99.90;;;;;;4939250;28;19926;-92
2023/08/07 07:36:06;;;;;;;;;;;18.30;99.90;;;;;;4940455;28;19944;-90
2023/08/07 07:38:34;;;;;;;;;;;18.10;99.90;;;;;;4937542;28;20726;-88
2023/08/07 07:41:00;;;;;;;;;;;17.70;99.90;;;;;;4937897;28;20021;-96
2023/08/07 07:43:26;;;;;;;;;;;18.30;99.90;;;;;;4933511;28;20033;-94
2023/08/07 07:45:51;;;;;;;;;;;16.90;99.90;;;;;;4937593;28;19921;-88
2023/08/07 07:48:17;;;;;;;;;;;16.70;99.90;;;;;;4939883;28;19981;-86
2023/08/07 07:50:43;;;;;;;;;;;16.50;99.90;;;;;;4937883;29;19925;-91
2023/08/07 07:53:12;;;;;;;;;;;17.10;99.90;;;;;;4940897;28;20299;-92
2023/08/07 07:55:47;;;;;;;;;;;17.30;99.90;;;;;;4943086;28;19922;-93
2023/08/07 07:59:03;;;;;;;;;;;18.60;99.90;;;;;;4944526;28;19929;-94
2023/08/07 08:01:29;;;;;;;;;;;19.60;99.90;;;;;;4954427;28;19930;-93
2023/08/07 08:03:57;;;;;;;;;;;19.30;99.90;;;;;;4939026;28;19929;-94
2023/08/07 08:06:25;;;;;;;;;;;19.10;99.90;;;;;;4940899;28;19924;-88
2023/08/07 08:08:54;;;;;;;;;;;19.70;99.90;;;;;;4945664;28;19922;-95
2023/08/07 08:11:19;;;;;;;;;;;20.60;99.90;;;;;;4945192;28;20005;-94
2023/08/07 08:13:48;;;;;;;;;;;18.90;99.90;;;;;;4944361;28;19976;-95
2023/08/07 08:16:23;;;;;;;;;;;20.10;99.90;;;;;;4943512;28;20127;-93
2023/08/07 08:18:52;;;;;;;;;;;19.00;99.90;;;;;;4943543;28;19922;-93
2023/08/07 08:21:25;;;;;;;;;;;21.40;99.90;;;;;;4943690;28;19977;-93
2023/08/07 08:23:51;;;;;;;;;;;23.90;99.90;;;;;;4940155;28;20009;-94
2023/08/07 08:26:24;;;;;;;;;;;21.90;99.90;;;;;;4932544;28;20005;-93
2023/08/07 08:28:52;;;;;;;;;;;21.00;99.90;;;;;;4939003;28;19918;-95
2023/08/07 08:31:24;;;;;;;;;;;22.20;99.90;;;;;;4938399;28;20304;-95
2023/08/07 08:33:52;;;;;;;;;;;21.50;99.90;;;;;;4941519;28;19929;-96
2023/08/07 08:36:18;;;;;;;;;;;20.60;99.90;;;;;;4938601;28;19929;-92
2023/08/07 08:38:45;;;;;;;;;;;20.10;99.90;;;;;;4936426;28;19917;-92
2023/08/07 08:41:11;;;;;;;;;;;19.10;99.90;;;;;;4941126;28;19972;-93
2023/08/07 08:43:37;;;;;;;;;;;18.70;99.90;;;;;;4937056;28;20012;-92
2023/08/07 08:46:07;;;;;;;;;;;18.60;99.90;;;;;;4956668;28;20017;-94
2023/08/07 08:48:38;;;;;;;;;;;18.70;99.90;;;;;;4955493;28;19922;-94
2023/08/07 08:51:04;;;;;;;;;;;18.50;99.90;;;;;;4935881;28;20108;-93
2023/08/07 08:54:01;;;;;;;;;;;;;;;;;;;;;
2023/08/07 09:50:17;;;;;;;;;;;25.70;99.70;;;;;;4891305;29;20347;-91
2023/08/07 09:53:20;;;;;;;;;;;26.10;99.80;;;;;;4873299;29;19929;-93
2023/08/07 10:06:37;;;;;;;;;;;;;;;;;;;;;
2023/08/07 10:10:01;;;;;;;;;;;25.00;98.40;;;;;;4779460;29;19929;-91
2023/08/07 10:12:32;;;;;;;;;;;23.20;99.30;;;;;;4782053;29;19976;-85
2023/08/07 10:15:04;;;;;;;;;;;25.30;98.70;;;;;;4870161;29;19967;-88
2023/08/07 10:17:51;;;;;;;;;;;;;;;;;;;;;
2023/08/07 10:21:19;;;;;;;;;;;22.80;96.70;;;;;;4825681;29;19932;-91
2023/08/07 10:30:38;;;;;;;;;;;23.90;96.70;;;;;;4863499;29;20381;-95
2023/08/07 10:33:08;;;;;;;;;;;23.50;97.00;;;;;;4858319;29;20004;-89
2023/08/07 10:35:34;;;;;;;;;;;21.00;97.10;;;;;;4860965;29;20755;-93
2023/08/07 10:38:38;;;;;;;;;;;19.20;97.50;;;;;;4872869;29;19923;-92
2023/08/07 10:41:29;;;;;;;;;;;;;;;;;;;;;
2023/08/07 10:44:43;;;;;;;;;;;18.40;97.60;;;;;;4891876;29;19927;-91
2023/08/07 10:47:20;;;;;;;;;;;21.80;97.40;;;;;;4861365;29;20444;-89
2023/08/07 10:49:46;;;;;;;;;;;21.90;97.80;;;;;;4879892;29;19919;-88
2023/08/07 10:52:13;;;;;;;;;;;21.40;99.20;;;;;;4882246;29;19930;-87
2023/08/07 10:54:49;;;;;;;;;;;21.80;97.90;;;;;;4906457;28;19922;-90
2023/08/07 10:57:19;;;;;;;;;;;23.30;98.60;;;;;;4933521;28;19926;-85
2023/08/07 11:00:11;;;;;;;;;;;23.70;99.10;;;;;;4937278;28;19972;-87
2023/08/07 11:02:53;;;;;;;;;;;21.50;97.90;;;;;;4935565;28;19918;-86
2023/08/07 11:05:20;;;;;;;;;;;20.50;97.50;;;;;;4935335;28;19965;-88
2023/08/07 11:07:48;;;;;;;;;;;20.30;98.90;;;;;;4934790;28;19922;-84
2023/08/07 11:10:22;;;;;;;;;;;18.10;99.50;;;;;;4933240;28;20423;-84
2023/08/07 11:12:51;;;;;;;;;;;20.30;99.90;;;;;;4931488;28;20218;-93
2023/08/07 11:15:17;;;;;;;;;;;20.70;99.90;;;;;;4935800;28;19926;-89
2023/08/07 11:17:46;;;;;;;;;;;20.90;99.80;;;;;;4928589;28;19922;-89
2023/08/07 11:20:19;;;;;;;;;;;19.00;97.60;;;;;;4934770;28;19980;-90
2023/08/07 11:22:47;;;;;;;;;;;20.80;98.80;;;;;;4933315;28;20132;-91
2023/08/07 11:25:41;;;;;;;;;;;19.70;99.50;;;;;;4938696;28;19926;-87
2023/08/07 11:30:56;;;;;;;;;;;16.80;98.50;;;;;;4945772;28;19928;-91
2023/08/07 11:33:23;;;;;;;;;;;19.60;98.50;;;;;;4938477;28;20000;-90
2023/08/07 11:35:51;;;;;;;;;;;19.30;98.00;;;;;;4929180;28;19918;-91
2023/08/07 11:38:37;;;;;;;;;;;19.30;98.40;;;;;;4938364;28;19921;-89
2023/08/07 11:41:05;;;;;;;;;;;19.40;97.70;;;;;;4929316;28;19922;-89
2023/08/07 11:43:31;;;;;;;;;;;19.60;99.40;;;;;;4937977;28;19926;-90
2023/08/07 11:45:58;;;;;;;;;;;19.80;99.10;;;;;;4935603;28;20343;-88
2023/08/07 11:48:25;;;;;;;;;;;20.30;99.40;;;;;;4934120;28;19969;-89
2023/08/07 11:50:51;;;;;;;;;;;17.40;97.40;;;;;;4934830;28;19922;-85
2023/08/07 11:53:18;;;;;;;;;;;19.90;98.10;;;;;;4935489;28;19945;-90
2023/08/07 11:55:57;;;;;;;;;;;17.60;98.60;;;;;;4936649;28;19921;-91
2023/08/07 11:58:24;;;;;;;;;;;20.70;98.40;;;;;;4948927;28;19922;-87
2023/08/07 12:00:50;;;;;;;;;;;19.90;98.80;;;;;;4936762;28;19933;-86
2023/08/07 12:03:33;;;;;;;;;;;19.80;98.40;;;;;;4938110;28;19922;-91
2023/08/07 12:06:04;;;;;;;;;;;19.80;98.80;;;;;;4937289;28;20008;-90
2023/08/07 12:08:34;;;;;;;;;;;19.70;98.60;;;;;;4951702;28;19925;-87
2023/08/07 12:11:00;;;;;;;;;;;19.80;98.90;;;;;;4935071;28;19948;-87
2023/08/07 12:13:29;;;;;;;;;;;20.00;99.10;;;;;;4954631;28;19949;-91
2023/08/07 12:15:55;;;;;;;;;;;19.90;97.80;;;;;;4942426;29;19923;-89
2023/08/07 12:18:22;;;;;;;;;;;19.80;98.30;;;;;;4958676;28;20130;-90
2023/08/07 12:20:54;;;;;;;;;;;19.40;98.80;;;;;;4948526;28;19929;-89
2023/08/07 12:23:20;;;;;;;;;;;19.20;98.60;;;;;;4938359;28;19996;-87
2023/08/07 12:25:48;;;;;;;;;;;19.00;99.40;;;;;;4936986;28;19926;-91
2023/08/07 12:28:15;;;;;;;;;;;18.90;99.90;;;;;;4937429;28;20323;-93
2023/08/07 12:30:43;;;;;;;;;;;19.30;99.90;;;;;;4936149;28;19949;-87
2023/08/07 12:33:09;;;;;;;;;;;18.90;99.90;;;;;;4935387;28;20034;-90
2023/08/07 12:35:35;;;;;;;;;;;19.10;99.90;;;;;;4937145;28;19991;-90
2023/08/07 12:38:02;;;;;;;;;;;19.10;99.90;;;;;;4937573;28;19918;-89
2023/08/07 12:40:31;;;;;;;;;;;20.60;99.90;;;;;;4940904;28;20384;-91
2023/08/07 12:42:58;;;;;;;;;;;18.90;99.90;;;;;;4923531;29;19945;-92
2023/08/07 12:45:24;;;;;;;;;;;18.90;99.90;;;;;;4919260;29;19922;-90
2023/08/07 12:47:49;;;;;;;;;;;17.90;99.90;;;;;;4934483;29;19930;-87
2023/08/07 12:50:15;;;;;;;;;;;17.60;99.90;;;;;;4920687;29;19926;-90
2023/08/07 12:52:44;;;;;;;;;;;17.50;99.90;;;;;;4921417;29;19937;-94
2023/08/07 12:55:10;;;;;;;;;;;15.00;99.90;;;;;;4917196;29;20212;-89
2023/08/07 12:57:36;;;;;;;;;;;17.80;99.90;;;;;;4938275;29;19927;-90
2023/08/07 13:00:02;;;;;;;;;;;16.30;99.90;;;;;;4922653;28;20409;-88
2023/08/07 13:02:27;;;;;;;;;;;17.80;99.90;;;;;;4936850;28;19926;-91
2023/08/07 13:04:58;;;;;;;;;;;17.80;99.90;;;;;;4907390;29;19933;-89
2023/08/07 13:07:25;;;;;;;;;;;15.80;99.90;;;;;;4939930;29;20398;-95
2023/08/07 13:09:50;;;;;;;;;;;17.40;99.90;;;;;;4922541;29;20633;-93
2023/08/07 13:12:19;;;;;;;;;;;20.90;99.90;;;;;;4923088;29;19981;-94
2023/08/07 13:14:45;;;;;;;;;;;20.30;99.90;;;;;;4922788;28;20059;-87
2023/08/07 13:17:11;;;;;;;;;;;17.90;99.90;;;;;;4921419;28;19922;-86
2023/08/07 13:19:36;;;;;;;;;;;18.80;99.90;;;;;;4921396;29;19922;-90
2023/08/07 13:22:02;;;;;;;;;;;17.90;99.90;;;;;;4917469;28;20308;-91
2023/08/07 13:24:28;;;;;;;;;;;17.80;99.90;;;;;;4919474;29;19919;-88
2023/08/07 13:26:53;;;;;;;;;;;18.10;99.90;;;;;;4932399;28;19918;-91
2023/08/07 13:29:21;;;;;;;;;;;18.30;99.90;;;;;;4918760;28;19922;-85
2023/08/07 13:31:48;;;;;;;;;;;18.50;99.90;;;;;;4915406;29;19929;-88
2023/08/07 13:34:13;;;;;;;;;;;18.50;99.90;;;;;;4912966;28;19965;-89
2023/08/07 13:36:39;;;;;;;;;;;18.50;99.90;;;;;;4912494;28;19922;-86
2023/08/07 13:39:05;;;;;;;;;;;18.50;99.90;;;;;;4912109;28;20427;-88
2023/08/07 13:41:31;;;;;;;;;;;18.50;99.90;;;;;;4937260;28;19926;-85
2023/08/07 13:43:57;;;;;;;;;;;18.50;99.90;;;;;;4934879;28;19929;-91
2023/08/07 13:46:22;;;;;;;;;;;18.50;99.90;;;;;;4929593;28;19977;-90
2023/08/07 13:48:48;;;;;;;;;;;18.50;99.90;;;;;;4952000;28;19965;-91
2023/08/07 13:51:14;;;;;;;;;;;18.50;99.90;;;;;;4935820;28;19922;-93
2023/08/07 13:53:40;;;;;;;;;;;15.90;99.90;;;;;;4933894;28;19961;-89
2023/08/07 13:56:07;;;;;;;;;;;18.80;99.90;;;;;;4950299;28;19922;-93
2023/08/07 13:58:32;;;;;;;;;;;19.10;99.90;;;;;;4927287;28;19961;-92
2023/08/07 14:00:58;;;;;;;;;;;19.20;99.90;;;;;;4936393;28;19984;-92
2023/08/07 14:03:24;;;;;;;;;;;19.30;99.90;;;;;;4936891;28;20059;-88
2023/08/07 14:05:50;;;;;;;;;;;19.30;99.90;;;;;;4954572;28;20012;-89
2023/08/07 14:08:16;;;;;;;;;;;19.40;99.90;;;;;;4939676;28;19918;-91
2023/08/07 14:10:42;;;;;;;;;;;20.10;99.90;;;;;;4956820;28;19929;-87
2023/08/07 14:13:09;;;;;;;;;;;19.20;99.90;;;;;;4942275;28;19966;-90
2023/08/07 14:15:35;;;;;;;;;;;19.20;99.90;;;;;;4941916;28;19925;-88
2023/08/07 14:18:01;;;;;;;;;;;19.00;99.90;;;;;;4957296;28;20311;-91
2023/08/07 14:20:27;;;;;;;;;;;18.80;99.90;;;;;;4951082;28;19918;-93
2023/08/07 14:22:52;;;;;;;;;;;18.60;99.90;;;;;;4939481;28;20453;-89
2023/08/07 14:25:21;;;;;;;;;;;18.60;99.90;;;;;;4938798;28;20008;-89
2023/08/07 14:27:47;;;;;;;;;;;18.70;99.90;;;;;;4941284;28;19972;-91
2023/08/07 14:30:13;;;;;;;;;;;19.00;99.90;;;;;;4942845;28;19921;-90
2023/08/07 14:32:42;;;;;;;;;;;19.20;99.90;;;;;;4942554;28;19929;-86
2023/08/07 14:35:11;;;;;;;;;;;19.00;99.90;;;;;;4942488;28;19922;-91
2023/08/07 14:37:37;;;;;;;;;;;19.00;99.90;;;;;;4941267;28;19968;-88
2023/08/07 14:40:03;;;;;;;;;;;18.80;99.90;;;;;;4942038;28;19969;-90
2023/08/07 14:42:28;;;;;;;;;;;19.00;99.90;;;;;;4942691;28;20009;-91
2023/08/07 14:44:54;;;;;;;;;;;16.80;99.90;;;;;;4942074;28;19921;-88
2023/08/07 14:47:20;;;;;;;;;;;19.00;99.90;;;;;;4939981;28;19922;-87
2023/08/07 14:49:45;;;;;;;;;;;18.30;99.90;;;;;;4956758;28;19925;-88
2023/08/07 14:52:11;;;;;;;;;;;18.40;99.90;;;;;;4942927;28;20004;-91
2023/08/07 14:54:39;;;;;;;;;;;18.10;99.90;;;;;;4957941;28;19922;-90
2023/08/07 14:57:05;;;;;;;;;;;21.10;99.90;;;;;;4942592;28;19922;-92
2023/08/07 14:59:31;;;;;;;;;;;18.20;99.90;;;;;;4941439;28;19922;-87
2023/08/07 15:01:56;;;;;;;;;;;18.00;99.90;;;;;;4941056;28;20025;-90
2023/08/07 15:04:22;;;;;;;;;;;17.80;99.90;;;;;;4941412;28;20020;-88
2023/08/07 15:06:50;;;;;;;;;;;17.80;99.90;;;;;;4941360;28;19941;-90
2023/08/07 15:09:17;;;;;;;;;;;17.70;99.90;;;;;;4940091;28;19922;-87
2023/08/07 15:11:42;;;;;;;;;;;17.80;99.90;;;;;;4939207;28;19922;-90
2023/08/07 15:14:08;;;;;;;;;;;17.70;99.90;;;;;;4937214;28;20696;-93
2023/08/07 15:16:35;;;;;;;;;;;17.60;99.90;;;;;;4932665;28;19929;-93
2023/08/07 15:19:01;;;;;;;;;;;17.50;99.90;;;;;;4936866;28;20774;-93
2023/08/07 15:21:26;;;;;;;;;;;17.50;99.90;;;;;;4932107;28;19923;-90
2023/08/07 15:23:52;;;;;;;;;;;17.50;99.90;;;;;;4951487;28;20213;-91
2023/08/07 15:26:18;;;;;;;;;;;17.70;99.90;;;;;;4937535;28;19924;-93
2023/08/07 15:28:46;;;;;;;;;;;17.60;99.90;;;;;;4936858;28;19922;-90
2023/08/07 15:31:12;;;;;;;;;;;17.70;99.90;;;;;;4937123;28;19996;-91
2023/08/07 15:33:38;;;;;;;;;;;17.70;99.90;;;;;;4935097;28;19983;-92
2023/08/07 15:36:04;;;;;;;;;;;17.60;99.90;;;;;;4936628;28;19928;-89
2023/08/07 15:38:29;;;;;;;;;;;17.60;99.90;;;;;;4935394;28;19922;-91
2023/08/07 15:40:55;;;;;;;;;;;17.70;99.90;;;;;;4917072;28;19948;-91
2023/08/07 15:43:24;;;;;;;;;;;17.80;99.90;;;;;;4907237;29;19934;-90
2023/08/07 15:45:59;;;;;;;;;;;17.90;99.90;;;;;;4913022;29;20403;-93
2023/08/07 15:48:29;;;;;;;;;;;17.90;99.90;;;;;;4915744;28;20122;-89
2023/08/07 15:50:58;;;;;;;;;;;16.00;99.90;;;;;;4916659;28;19930;-92
2023/08/07 15:53:24;;;;;;;;;;;18.20;99.90;;;;;;4917711;29;19958;-92
2023/08/07 15:55:55;;;;;;;;;;;18.50;99.90;;;;;;4912070;29;19926;-92
2023/08/07 15:58:22;;;;;;;;;;;18.00;99.90;;;;;;4915860;29;19930;-88
2023/08/07 16:00:58;;;;;;;;;;;18.10;99.90;;;;;;4916116;28;19922;-92
2023/08/07 16:03:36;;;;;;;;;;;18.60;99.90;;;;;;4917875;29;20411;-92
2023/08/07 16:06:02;;;;;;;;;;;17.80;99.90;;;;;;4911330;28;19980;-89
2023/08/07 16:08:50;;;;;;;;;;;18.20;99.90;;;;;;4918367;28;19922;-92
2023/08/07 16:11:15;;;;;;;;;;;19.00;99.90;;;;;;4909768;28;19934;-93